Time;durP1;ratioP1;P1;durP2;ratioP2;P2;SDS_P1;SDS_P2;PMS_P1;PMS_P2;Temp;Humidity;BMP_temperature;BMP_pressure;BME280_temperature;BME280_humidity;BME280_pressure;Samples;Min_cycle;Max_cycle;Signal;HPM_P1;HPM_P2
2022/03/19 00:01:26;;;;;;;;;;;19.80;99.90;;;;;;5030874;28;19955;-61
2022/03/19 00:03:54;;;;;;;;;;;19.80;99.90;;;;;;5039280;28;20408;-61
2022/03/19 00:06:21;;;;;;;;;;;19.80;99.90;;;;;;5047324;28;19932;-61
2022/03/19 00:08:48;;;;;;;;;;;19.80;99.90;;;;;;5052270;28;19929;-62
2022/03/19 00:11:16;;;;;;;;;;;19.70;99.90;;;;;;5049928;28;19944;-62
2022/03/19 00:13:43;;;;;;;;;;;19.70;99.90;;;;;;5047512;28;19935;-60
2022/03/19 00:16:10;;;;;;;;;;;19.80;99.90;;;;;;5038785;28;19929;-61
2022/03/19 00:18:38;;;;;;;;;;;19.80;99.90;;;;;;5031031;28;19929;-61
2022/03/19 00:21:05;;;;;;;;;;;19.80;99.90;;;;;;5041391;28;20332;-57
2022/03/19 00:23:32;;;;;;;;;;;19.80;99.90;;;;;;5044855;28;19929;-61
2022/03/19 00:26:00;;;;;;;;;;;19.70;99.90;;;;;;5041339;28;19951;-61
2022/03/19 00:28:27;;;;;;;;;;;19.70;99.90;;;;;;5029073;28;19928;-61
2022/03/19 00:30:57;;;;;;;;;;;19.70;99.90;;;;;;5037310;28;19928;-60
2022/03/19 00:33:24;;;;;;;;;;;19.70;99.90;;;;;;5042947;28;20324;-58
2022/03/19 00:35:52;;;;;;;;;;;19.70;99.90;;;;;;5044982;28;19925;-61
2022/03/19 00:38:19;;;;;;;;;;;19.70;99.90;;;;;;5036666;28;19925;-59
2022/03/19 00:40:47;;;;;;;;;;;19.70;99.90;;;;;;5028700;28;19936;-58
2022/03/19 00:43:14;;;;;;;;;;;19.60;99.90;;;;;;5043608;28;19936;-59
2022/03/19 00:45:41;;;;;;;;;;;19.70;99.90;;;;;;5041592;28;19949;-62
2022/03/19 00:48:08;;;;;;;;;;;19.70;99.90;;;;;;5027783;28;19933;-62
2022/03/19 00:50:36;;;;;;;;;;;19.70;99.90;;;;;;5028351;28;19933;-59
2022/03/19 00:53:03;;;;;;;;;;;19.70;99.90;;;;;;5033347;28;19933;-59
2022/03/19 00:55:30;;;;;;;;;;;19.70;99.90;;;;;;5043565;28;20111;-60
2022/03/19 00:57:57;;;;;;;;;;;19.60;99.90;;;;;;5044569;28;19925;-60
2022/03/19 01:00:26;;;;;;;;;;;19.70;99.90;;;;;;5037782;28;20535;-60
2022/03/19 01:02:54;;;;;;;;;;;19.60;99.90;;;;;;5036469;28;19929;-60
2022/03/19 01:05:22;;;;;;;;;;;19.60;99.90;;;;;;5037218;28;19925;-57
2022/03/19 01:07:51;;;;;;;;;;;19.60;99.90;;;;;;5046704;28;19957;-61
2022/03/19 01:10:20;;;;;;;;;;;19.60;99.90;;;;;;5041832;28;19936;-57
2022/03/19 01:12:48;;;;;;;;;;;19.60;99.90;;;;;;5045871;28;19951;-59
2022/03/19 01:15:15;;;;;;;;;;;19.60;99.90;;;;;;5031661;28;19929;-58
2022/03/19 01:17:43;;;;;;;;;;;19.50;99.90;;;;;;5038304;28;19928;-59
2022/03/19 01:20:10;;;;;;;;;;;19.50;99.90;;;;;;5038852;28;19925;-56
2022/03/19 01:22:39;;;;;;;;;;;19.40;99.90;;;;;;5035999;28;19933;-59
2022/03/19 01:25:07;;;;;;;;;;;19.40;99.90;;;;;;5037750;28;20392;-58
2022/03/19 01:27:35;;;;;;;;;;;19.40;99.90;;;;;;5032486;28;19933;-60
2022/03/19 01:30:04;;;;;;;;;;;19.30;99.90;;;;;;5045819;28;19928;-59
2022/03/19 01:32:31;;;;;;;;;;;19.30;99.90;;;;;;5039077;28;19952;-59
2022/03/19 01:34:58;;;;;;;;;;;19.30;99.90;;;;;;5040333;28;19929;-60
2022/03/19 01:37:25;;;;;;;;;;;19.30;99.90;;;;;;5042107;28;19936;-57
2022/03/19 01:39:55;;;;;;;;;;;19.30;99.90;;;;;;5035879;28;19929;-59
2022/03/19 01:42:26;;;;;;;;;;;19.20;99.90;;;;;;5038997;28;19932;-58
2022/03/19 01:44:54;;;;;;;;;;;19.20;99.90;;;;;;5043534;28;19929;-58
2022/03/19 01:47:21;;;;;;;;;;;19.20;99.90;;;;;;5038435;28;20369;-57
2022/03/19 01:49:49;;;;;;;;;;;19.20;99.90;;;;;;5058112;28;19926;-61
2022/03/19 01:52:16;;;;;;;;;;;19.20;99.90;;;;;;5035920;28;20003;-59
2022/03/19 01:54:44;;;;;;;;;;;19.20;99.90;;;;;;5033311;28;19940;-61
2022/03/19 01:57:14;;;;;;;;;;;19.20;99.90;;;;;;5033835;28;19929;-60
2022/03/19 01:59:42;;;;;;;;;;;19.20;99.90;;;;;;5033867;28;19936;-61
2022/03/19 02:02:12;;;;;;;;;;;19.20;99.90;;;;;;5028980;28;19929;-58
2022/03/19 02:04:41;;;;;;;;;;;19.10;99.90;;;;;;5040290;28;19929;-62
2022/03/19 02:07:09;;;;;;;;;;;19.10;99.90;;;;;;5042508;28;19929;-62
2022/03/19 02:09:39;;;;;;;;;;;19.10;99.90;;;;;;5027959;28;20216;-60
2022/03/19 02:12:07;;;;;;;;;;;19.10;99.90;;;;;;5029151;28;19929;-61
2022/03/19 02:14:34;;;;;;;;;;;19.10;99.90;;;;;;5038446;28;19925;-58
2022/03/19 02:17:02;;;;;;;;;;;19.10;99.90;;;;;;5043461;28;19936;-59
2022/03/19 02:19:29;;;;;;;;;;;19.00;99.90;;;;;;5040716;28;19925;-61
2022/03/19 02:21:57;;;;;;;;;;;19.00;99.90;;;;;;5042715;28;19933;-59
2022/03/19 02:27:09;;;;;;;;;;;19.00;99.90;;;;;;5047252;28;19932;-60
2022/03/19 02:29:37;;;;;;;;;;;19.00;99.90;;;;;;5075536;28;19948;-60
2022/03/19 02:32:04;;;;;;;;;;;19.00;99.90;;;;;;5042869;28;19925;-59
2022/03/19 02:34:34;;;;;;;;;;;19.00;99.90;;;;;;5035046;28;19929;-59
2022/03/19 02:37:02;;;;;;;;;;;19.00;99.90;;;;;;5041085;28;19933;-58
2022/03/19 02:39:33;;;;;;;;;;;18.90;99.90;;;;;;5046242;28;19929;-60
2022/03/19 02:42:01;;;;;;;;;;;19.00;99.90;;;;;;5035029;28;19935;-62
2022/03/19 02:44:29;;;;;;;;;;;18.90;99.90;;;;;;5046076;28;19952;-61
2022/03/19 02:46:57;;;;;;;;;;;18.90;99.90;;;;;;5030480;28;19929;-61
2022/03/19 02:49:25;;;;;;;;;;;18.90;99.90;;;;;;5041622;28;19967;-59
2022/03/19 02:51:53;;;;;;;;;;;18.90;99.90;;;;;;5030633;28;19932;-58
2022/03/19 02:54:24;;;;;;;;;;;18.90;99.90;;;;;;5033594;28;19929;-61
2022/03/19 02:56:53;;;;;;;;;;;18.90;99.90;;;;;;5039858;28;19937;-60
2022/03/19 02:59:20;;;;;;;;;;;18.90;99.90;;;;;;5043545;28;19929;-62
2022/03/19 03:01:49;;;;;;;;;;;18.90;99.90;;;;;;5030219;28;19940;-61
2022/03/19 03:04:16;;;;;;;;;;;18.80;99.90;;;;;;5040646;28;19962;-60
2022/03/19 03:06:44;;;;;;;;;;;18.80;99.90;;;;;;5041348;28;19936;-59
2022/03/19 03:09:13;;;;;;;;;;;18.80;99.90;;;;;;5047859;28;20408;-58
2022/03/19 03:11:40;;;;;;;;;;;18.80;99.90;;;;;;5037825;28;19929;-60
2022/03/19 03:14:26;;;;;;;;;;;18.80;99.90;;;;;;5034112;28;19939;-60
2022/03/19 03:16:53;;;;;;;;;;;18.80;99.90;;;;;;5040379;28;19929;-61
2022/03/19 03:19:20;;;;;;;;;;;18.80;99.90;;;;;;5047555;28;20382;-58
2022/03/19 03:21:47;;;;;;;;;;;18.80;99.90;;;;;;5040502;28;19933;-61
2022/03/19 03:24:15;;;;;;;;;;;18.80;99.90;;;;;;5040636;28;19951;-60
2022/03/19 03:26:42;;;;;;;;;;;18.80;99.90;;;;;;5043692;28;19929;-59
2022/03/19 03:29:10;;;;;;;;;;;18.80;99.90;;;;;;5038545;28;19925;-61
2022/03/19 03:31:37;;;;;;;;;;;18.80;99.90;;;;;;5048886;28;20000;-60
2022/03/19 03:34:05;;;;;;;;;;;18.80;99.90;;;;;;5059860;28;19931;-63
2022/03/19 03:36:32;;;;;;;;;;;18.80;99.90;;;;;;5046407;28;19929;-59
2022/03/19 03:38:59;;;;;;;;;;;18.70;99.90;;;;;;5030378;28;19929;-58
2022/03/19 03:41:26;;;;;;;;;;;18.70;99.90;;;;;;5035868;28;19936;-60
2022/03/19 03:43:53;;;;;;;;;;;18.70;99.90;;;;;;5033694;28;19929;-59
2022/03/19 03:46:20;;;;;;;;;;;18.70;99.90;;;;;;5033159;28;19976;-60
2022/03/19 03:48:47;;;;;;;;;;;18.70;99.90;;;;;;5029475;28;19929;-58
2022/03/19 03:51:15;;;;;;;;;;;18.70;99.90;;;;;;5039036;28;19929;-61
2022/03/19 03:53:44;;;;;;;;;;;18.70;99.90;;;;;;5033913;28;20447;-61
2022/03/19 03:56:12;;;;;;;;;;;18.70;99.90;;;;;;5036445;28;20332;-60
2022/03/19 03:58:40;;;;;;;;;;;18.70;99.90;;;;;;5038803;28;19929;-61
2022/03/19 04:01:08;;;;;;;;;;;18.60;99.90;;;;;;5039477;28;19929;-60
2022/03/19 04:03:35;;;;;;;;;;;18.60;99.90;;;;;;5042182;28;19936;-59
2022/03/19 04:06:03;;;;;;;;;;;18.60;99.90;;;;;;5046536;28;19944;-59
2022/03/19 04:08:30;;;;;;;;;;;18.60;99.90;;;;;;5029234;28;20583;-59
2022/03/19 04:10:57;;;;;;;;;;;18.60;99.90;;;;;;5044638;28;19948;-60
2022/03/19 04:13:24;;;;;;;;;;;18.60;99.90;;;;;;5045485;28;19929;-58
2022/03/19 04:15:51;;;;;;;;;;;18.60;99.90;;;;;;5030801;28;20005;-60
2022/03/19 04:18:18;;;;;;;;;;;18.60;99.90;;;;;;5034410;28;19925;-61
2022/03/19 04:20:45;;;;;;;;;;;18.60;99.90;;;;;;5033579;28;19932;-60
2022/03/19 04:23:13;;;;;;;;;;;18.60;99.90;;;;;;5032879;28;19956;-59
2022/03/19 04:25:40;;;;;;;;;;;18.60;99.90;;;;;;5029869;28;19929;-60
2022/03/19 04:28:11;;;;;;;;;;;18.60;99.90;;;;;;5043634;28;20406;-59
2022/03/19 04:30:40;;;;;;;;;;;18.60;99.90;;;;;;5050297;28;20315;-60
2022/03/19 04:33:08;;;;;;;;;;;18.50;99.90;;;;;;5045471;28;19933;-60
2022/03/19 04:38:21;;;;;;;;;;;18.50;99.90;;;;;;5032072;28;19936;-57
2022/03/19 04:40:50;;;;;;;;;;;18.50;99.90;;;;;;5042792;28;19932;-61
2022/03/19 04:43:17;;;;;;;;;;;18.50;99.80;;;;;;5046395;28;19929;-60
2022/03/19 04:45:44;;;;;;;;;;;18.50;99.70;;;;;;5041692;28;20928;-58
2022/03/19 04:48:11;;;;;;;;;;;18.50;99.70;;;;;;5039341;28;20038;-60
2022/03/19 04:50:40;;;;;;;;;;;18.50;99.80;;;;;;5039777;28;19933;-60
2022/03/19 04:53:08;;;;;;;;;;;18.50;99.60;;;;;;5032192;28;20387;-59
2022/03/19 04:55:36;;;;;;;;;;;18.60;99.40;;;;;;5031736;28;20403;-59
2022/03/19 04:58:05;;;;;;;;;;;18.70;99.60;;;;;;5044633;28;20327;-59
2022/03/19 05:00:32;;;;;;;;;;;18.80;99.10;;;;;;5041829;28;19928;-58
2022/03/19 05:03:04;;;;;;;;;;;19.10;98.90;;;;;;5037492;28;20225;-59
2022/03/19 05:05:32;;;;;;;;;;;19.30;98.50;;;;;;5040341;28;19939;-58
2022/03/19 05:07:59;;;;;;;;;;;19.40;98.50;;;;;;5027835;28;20737;-62
2022/03/19 05:13:12;;;;;;;;;;;19.60;97.90;;;;;;5043675;28;20411;-61
2022/03/19 05:15:39;;;;;;;;;;;19.80;97.70;;;;;;5041368;28;20353;-60
2022/03/19 05:18:07;;;;;;;;;;;19.90;97.60;;;;;;5035671;28;19925;-59
2022/03/19 05:20:34;;;;;;;;;;;20.00;97.50;;;;;;5040092;28;20282;-58
2022/03/19 05:23:06;;;;;;;;;;;20.20;97.30;;;;;;5040357;28;19925;-59
2022/03/19 05:25:33;;;;;;;;;;;20.40;97.20;;;;;;5031043;28;20328;-59
2022/03/19 05:28:00;;;;;;;;;;;20.50;96.90;;;;;;5045489;28;19929;-60
2022/03/19 05:30:48;;;;;;;;;;;20.60;96.80;;;;;;5042350;28;19928;-60
2022/03/19 05:33:15;;;;;;;;;;;20.80;96.70;;;;;;5039295;28;19929;-61
2022/03/19 05:35:42;;;;;;;;;;;20.90;96.60;;;;;;5036666;28;20299;-60
2022/03/19 05:38:10;;;;;;;;;;;21.10;96.20;;;;;;5040102;28;20258;-60
2022/03/19 05:40:37;;;;;;;;;;;21.30;95.90;;;;;;5040172;28;19932;-60
2022/03/19 05:43:04;;;;;;;;;;;21.40;95.80;;;;;;5041022;28;19933;-60
2022/03/19 05:45:31;;;;;;;;;;;21.60;95.50;;;;;;5030008;28;20402;-58
2022/03/19 05:47:59;;;;;;;;;;;21.70;95.20;;;;;;5040088;28;19933;-58
2022/03/19 05:50:26;;;;;;;;;;;21.70;95.10;;;;;;5027217;28;19929;-59
2022/03/19 05:52:54;;;;;;;;;;;21.90;94.70;;;;;;5069219;28;19932;-60
2022/03/19 05:55:21;;;;;;;;;;;21.90;94.50;;;;;;5040942;28;20309;-58
2022/03/19 05:57:49;;;;;;;;;;;21.90;94.30;;;;;;5046600;28;19933;-59
2022/03/19 06:00:16;;;;;;;;;;;21.90;94.30;;;;;;5047162;28;19940;-58
2022/03/19 06:02:44;;;;;;;;;;;21.90;94.40;;;;;;5047301;28;19928;-61
2022/03/19 06:05:16;;;;;;;;;;;21.90;94.20;;;;;;5047877;28;19929;-62
2022/03/19 06:07:43;;;;;;;;;;;21.80;94.40;;;;;;5048167;28;19944;-62
2022/03/19 06:10:10;;;;;;;;;;;21.80;94.70;;;;;;5039724;28;19925;-62
2022/03/19 06:12:37;;;;;;;;;;;21.80;95.20;;;;;;5041793;28;19936;-61
2022/03/19 06:15:05;;;;;;;;;;;21.80;95.50;;;;;;5049885;28;19932;-59
2022/03/19 06:17:32;;;;;;;;;;;21.80;95.90;;;;;;5039436;28;19929;-59
2022/03/19 06:19:59;;;;;;;;;;;21.80;96.40;;;;;;5045584;28;20402;-59
2022/03/19 06:22:26;;;;;;;;;;;21.80;97.00;;;;;;5048293;28;19929;-67
2022/03/19 06:24:54;;;;;;;;;;;21.80;97.50;;;;;;5035149;28;19932;-66
2022/03/19 06:27:22;;;;;;;;;;;21.80;97.80;;;;;;5042103;28;20008;-67
2022/03/19 06:29:49;;;;;;;;;;;21.80;98.00;;;;;;5049785;28;19935;-65
2022/03/19 06:32:20;;;;;;;;;;;21.80;98.40;;;;;;5048371;28;20353;-67
2022/03/19 06:34:48;;;;;;;;;;;21.80;98.60;;;;;;5049883;28;20381;-67
2022/03/19 06:37:21;;;;;;;;;;;21.80;98.80;;;;;;5044882;28;20307;-62
2022/03/19 06:39:50;;;;;;;;;;;21.70;99.00;;;;;;5043965;28;19929;-61
2022/03/19 06:42:17;;;;;;;;;;;21.70;99.40;;;;;;5046930;28;19936;-61
2022/03/19 06:44:44;;;;;;;;;;;21.60;99.40;;;;;;5042305;28;19936;-58
2022/03/19 06:47:11;;;;;;;;;;;21.60;99.60;;;;;;5040872;28;20328;-57
2022/03/19 06:49:40;;;;;;;;;;;21.50;99.30;;;;;;5045815;28;19928;-58
2022/03/19 06:52:07;;;;;;;;;;;21.40;97.20;;;;;;5043025;28;19925;-58
2022/03/19 06:54:34;;;;;;;;;;;21.20;95.50;;;;;;5043992;28;19925;-55
2022/03/19 06:57:01;;;;;;;;;;;21.00;93.00;;;;;;5044674;28;20277;-59
2022/03/19 06:59:30;;;;;;;;;;;20.90;92.40;;;;;;5041297;28;19929;-57
2022/03/19 07:01:58;;;;;;;;;;;20.80;91.90;;;;;;5041147;28;19963;-61
2022/03/19 07:04:26;;;;;;;;;;;20.70;91.60;;;;;;5035558;28;19929;-59
2022/03/19 07:06:53;;;;;;;;;;;20.70;91.40;;;;;;5047194;28;19936;-60
2022/03/19 07:09:29;;;;;;;;;;;20.70;91.20;;;;;;5042384;28;19936;-59
2022/03/19 07:11:56;;;;;;;;;;;20.70;90.70;;;;;;5042638;28;19932;-57
2022/03/19 07:14:23;;;;;;;;;;;20.70;90.60;;;;;;5046233;28;19951;-61
2022/03/19 07:16:51;;;;;;;;;;;20.80;90.30;;;;;;5045789;28;20355;-57
2022/03/19 07:19:18;;;;;;;;;;;20.90;90.00;;;;;;5039403;28;19929;-58
2022/03/19 07:21:46;;;;;;;;;;;21.00;89.80;;;;;;5038160;28;19929;-59
2022/03/19 07:24:13;;;;;;;;;;;21.10;89.30;;;;;;5044201;28;19941;-59
2022/03/19 07:26:40;;;;;;;;;;;21.10;88.90;;;;;;5048503;28;19944;-60
2022/03/19 07:29:08;;;;;;;;;;;21.20;88.90;;;;;;5046494;28;19933;-60
2022/03/19 07:31:35;;;;;;;;;;;21.30;89.30;;;;;;5043731;28;19928;-59
2022/03/19 07:34:02;;;;;;;;;;;21.30;89.50;;;;;;5032078;28;20396;-60
2022/03/19 07:36:31;;;;;;;;;;;21.40;90.10;;;;;;5037951;28;19929;-58
2022/03/19 07:38:58;;;;;;;;;;;21.50;90.60;;;;;;5032721;28;19929;-60
2022/03/19 07:44:11;;;;;;;;;;;21.60;91.30;;;;;;5048763;28;19933;-60
2022/03/19 07:46:41;;;;;;;;;;;21.70;91.70;;;;;;5044859;28;19936;-60
2022/03/19 07:49:11;;;;;;;;;;;21.70;92.00;;;;;;5030341;28;20408;-60
2022/03/19 07:51:38;;;;;;;;;;;21.70;92.20;;;;;;5032320;28;20976;-61
2022/03/19 07:54:06;;;;;;;;;;;21.80;92.40;;;;;;5047497;28;19935;-59
2022/03/19 07:56:33;;;;;;;;;;;21.80;92.70;;;;;;5030554;28;19929;-58
2022/03/19 07:59:00;;;;;;;;;;;21.80;92.90;;;;;;5041063;28;19933;-59
2022/03/19 08:01:27;;;;;;;;;;;21.80;93.10;;;;;;5044925;28;19929;-61
2022/03/19 08:04:00;;;;;;;;;;;21.80;93.30;;;;;;5034869;28;19933;-58
2022/03/19 08:06:27;;;;;;;;;;;21.80;93.40;;;;;;5039398;28;19929;-58
2022/03/19 08:08:54;;;;;;;;;;;21.80;93.60;;;;;;5036914;28;19948;-60
2022/03/19 08:11:21;;;;;;;;;;;21.80;93.80;;;;;;5036413;28;20389;-59
2022/03/19 08:13:49;;;;;;;;;;;21.80;94.00;;;;;;5038950;28;19932;-60
2022/03/19 08:16:16;;;;;;;;;;;21.70;94.10;;;;;;5030192;28;19925;-60
2022/03/19 08:18:44;;;;;;;;;;;21.70;94.30;;;;;;5029224;28;19936;-60
2022/03/19 08:21:11;;;;;;;;;;;21.60;94.50;;;;;;5028434;28;19929;-59
2022/03/19 08:23:39;;;;;;;;;;;21.60;94.60;;;;;;5045740;28;19936;-59
2022/03/19 08:26:06;;;;;;;;;;;21.60;94.80;;;;;;5030698;28;19929;-59
2022/03/19 08:28:33;;;;;;;;;;;21.50;94.90;;;;;;5030802;28;19936;-59
2022/03/19 08:31:01;;;;;;;;;;;21.50;95.00;;;;;;5042766;28;19933;-58
2022/03/19 08:33:28;;;;;;;;;;;21.40;95.20;;;;;;5040617;28;19936;-58
2022/03/19 08:35:56;;;;;;;;;;;21.40;95.30;;;;;;5034722;28;20412;-58
2022/03/19 08:41:09;;;;;;;;;;;21.40;95.60;;;;;;5027928;28;19929;-59
2022/03/19 08:43:36;;;;;;;;;;;21.40;95.70;;;;;;5029968;28;20753;-60
2022/03/19 08:46:04;;;;;;;;;;;21.40;95.80;;;;;;5036929;28;19929;-57
2022/03/19 08:48:32;;;;;;;;;;;21.30;95.90;;;;;;5029466;28;19947;-61
2022/03/19 08:51:39;;;;;;;;;;;21.30;96.00;;;;;;5028565;28;19929;-61
2022/03/19 08:53:48;;;;;;;;;;;21.30;96.10;;;;;;5033684;28;19929;-60
2022/03/19 08:56:16;;;;;;;;;;;21.40;96.10;;;;;;5027866;28;19956;-61
2022/03/19 08:58:43;;;;;;;;;;;21.40;96.10;;;;;;5035938;28;20251;-57
2022/03/19 09:01:11;;;;;;;;;;;21.40;96.20;;;;;;5027865;28;19940;-58
2022/03/19 09:03:38;;;;;;;;;;;21.40;96.20;;;;;;5038842;28;19929;-60
2022/03/19 09:06:06;;;;;;;;;;;21.40;96.30;;;;;;5042698;28;19928;-59
2022/03/19 09:08:33;;;;;;;;;;;21.40;96.40;;;;;;5039809;28;19950;-62
2022/03/19 09:11:00;;;;;;;;;;;21.40;96.40;;;;;;5039584;28;19925;-58
2022/03/19 09:13:27;;;;;;;;;;;21.40;96.70;;;;;;5067095;28;19929;-64
2022/03/19 09:15:54;;;;;;;;;;;21.40;96.50;;;;;;5046572;28;19925;-58
2022/03/19 09:18:22;;;;;;;;;;;21.40;96.60;;;;;;5039130;28;19933;-58
2022/03/19 09:20:49;;;;;;;;;;;21.40;96.70;;;;;;5030047;28;19929;-58
2022/03/19 09:23:17;;;;;;;;;;;21.40;96.80;;;;;;5043318;28;19936;-58
2022/03/19 09:25:44;;;;;;;;;;;21.40;96.90;;;;;;5029145;28;20320;-57
2022/03/19 09:28:11;;;;;;;;;;;21.30;97.00;;;;;;5039970;28;19940;-59
2022/03/19 09:30:38;;;;;;;;;;;21.40;97.00;;;;;;5046144;28;19935;-62
2022/03/19 09:33:06;;;;;;;;;;;21.40;96.90;;;;;;5041696;28;19929;-61
2022/03/19 09:35:45;;;;;;;;;;;21.50;96.90;;;;;;5031143;28;20397;-57
2022/03/19 09:38:14;;;;;;;;;;;21.60;96.80;;;;;;5037735;28;19947;-61
2022/03/19 09:40:42;;;;;;;;;;;21.70;96.80;;;;;;5043369;28;19933;-59
2022/03/19 09:43:09;;;;;;;;;;;21.80;96.60;;;;;;5035085;28;19928;-59
2022/03/19 09:45:38;;;;;;;;;;;21.80;96.60;;;;;;5031294;28;19952;-61
2022/03/19 09:48:05;;;;;;;;;;;21.90;96.60;;;;;;5037176;28;20051;-60
2022/03/19 09:50:34;;;;;;;;;;;21.90;96.50;;;;;;5036511;28;19933;-60
2022/03/19 09:53:02;;;;;;;;;;;21.90;96.50;;;;;;5043789;28;20415;-60
2022/03/19 09:55:29;;;;;;;;;;;21.90;96.60;;;;;;5037954;28;20297;-60
2022/03/19 09:57:57;;;;;;;;;;;21.90;96.70;;;;;;5034783;28;20308;-61
2022/03/19 10:00:28;;;;;;;;;;;21.80;96.70;;;;;;5032789;28;20464;-62
2022/03/19 10:02:55;;;;;;;;;;;21.90;96.70;;;;;;5045852;28;20320;-61
2022/03/19 10:10:55;;;;;;;;;;;21.90;96.80;;;;;;5027831;28;19940;-61
2022/03/19 10:13:26;;;;;;;;;;;21.90;96.80;;;;;;5031202;28;20004;-59
2022/03/19 10:15:53;;;;;;;;;;;21.90;96.90;;;;;;5066825;28;20452;-60
2022/03/19 10:18:28;;;;;;;;;;;21.90;96.90;;;;;;5028962;28;19929;-60
2022/03/19 10:20:58;;;;;;;;;;;21.90;96.90;;;;;;5032615;28;19929;-58
2022/03/19 10:23:30;;;;;;;;;;;21.90;96.90;;;;;;5037899;28;19929;-61
2022/03/19 10:25:57;;;;;;;;;;;21.90;97.00;;;;;;5044790;28;19935;-61
2022/03/19 10:28:28;;;;;;;;;;;21.90;97.10;;;;;;5034249;28;19933;-61
2022/03/19 10:30:56;;;;;;;;;;;21.90;97.10;;;;;;5040374;28;19933;-62
2022/03/19 10:33:25;;;;;;;;;;;21.80;97.10;;;;;;5040402;28;19929;-62
2022/03/19 10:36:03;;;;;;;;;;;21.80;97.10;;;;;;5029592;28;19933;-60
2022/03/19 10:38:39;;;;;;;;;;;21.80;97.20;;;;;;5059550;28;20294;-62
2022/03/19 10:41:06;;;;;;;;;;;21.80;97.20;;;;;;5039640;28;19929;-59
2022/03/19 10:43:34;;;;;;;;;;;21.70;97.20;;;;;;5027335;28;20328;-61
2022/03/19 10:46:02;;;;;;;;;;;21.70;97.30;;;;;;5040413;28;19936;-58
2022/03/19 10:48:30;;;;;;;;;;;21.70;97.30;;;;;;5048380;28;20008;-60
2022/03/19 10:50:57;;;;;;;;;;;21.70;97.40;;;;;;5031249;28;20012;-59
2022/03/19 10:53:25;;;;;;;;;;;21.70;97.40;;;;;;5041851;28;19940;-60
2022/03/19 10:55:53;;;;;;;;;;;21.60;97.40;;;;;;5046296;28;20416;-60
2022/03/19 10:58:20;;;;;;;;;;;21.60;97.50;;;;;;5035705;28;19929;-59
2022/03/19 11:01:07;;;;;;;;;;;21.50;97.50;;;;;;5059428;28;19929;-60
2022/03/19 11:03:37;;;;;;;;;;;21.50;97.60;;;;;;5033776;28;19925;-61
2022/03/19 11:06:09;;;;;;;;;;;21.50;97.60;;;;;;5050502;28;19936;-61
2022/03/19 11:08:43;;;;;;;;;;;21.40;97.60;;;;;;5045642;28;20443;-60
2022/03/19 11:11:15;;;;;;;;;;;21.40;97.70;;;;;;5062845;28;19929;-61
2022/03/19 11:13:46;;;;;;;;;;;21.40;97.80;;;;;;5045864;28;19933;-60
2022/03/19 11:16:13;;;;;;;;;;;21.30;97.80;;;;;;5045640;28;19929;-61
2022/03/19 11:18:42;;;;;;;;;;;21.40;97.90;;;;;;5043113;28;19929;-59
2022/03/19 11:21:09;;;;;;;;;;;21.30;97.90;;;;;;5030600;28;19936;-63
2022/03/19 11:23:48;;;;;;;;;;;21.20;97.90;;;;;;5039844;28;19936;-59
2022/03/19 11:26:18;;;;;;;;;;;21.20;98.00;;;;;;5042529;28;19932;-59
2022/03/19 11:28:46;;;;;;;;;;;21.20;98.00;;;;;;5039056;28;19936;-60
2022/03/19 11:31:16;;;;;;;;;;;21.20;98.10;;;;;;5046111;28;19951;-57
2022/03/19 11:33:45;;;;;;;;;;;21.20;98.10;;;;;;5032009;28;19936;-59
2022/03/19 11:36:13;;;;;;;;;;;21.30;98.10;;;;;;5034770;28;19938;-60
2022/03/19 11:38:51;;;;;;;;;;;21.40;98.00;;;;;;5030723;28;20314;-59
2022/03/19 11:41:23;;;;;;;;;;;21.40;97.90;;;;;;5061790;28;20317;-60
2022/03/19 11:44:10;;;;;;;;;;;21.50;97.80;;;;;;5031985;28;20048;-59
2022/03/19 11:46:56;;;;;;;;;;;21.60;97.60;;;;;;5049814;28;19929;-61
2022/03/19 11:50:02;;;;;;;;;;;21.70;97.60;;;;;;5039523;28;20384;-62
2022/03/19 11:52:29;;;;;;;;;;;21.80;97.40;;;;;;4945196;29;19974;-59
2022/03/19 11:55:10;;;;;;;;;;;21.80;97.40;;;;;;4957710;28;19930;-57
2022/03/19 11:57:49;;;;;;;;;;;21.90;97.40;;;;;;4958106;29;19934;-61
2022/03/19 12:00:17;;;;;;;;;;;21.90;97.30;;;;;;4949035;28;19937;-61
2022/03/19 12:03:03;;;;;;;;;;;21.90;97.30;;;;;;4952985;29;19933;-58
2022/03/19 12:05:31;;;;;;;;;;;21.90;97.60;;;;;;4942489;29;19930;-62
2022/03/19 12:08:26;;;;;;;;;;;21.90;97.40;;;;;;4952276;29;19931;-61
2022/03/19 12:10:57;;;;;;;;;;;21.80;97.40;;;;;;4951254;29;19957;-62
2022/03/19 12:13:27;;;;;;;;;;;21.80;97.50;;;;;;4949758;29;19931;-60
2022/03/19 12:16:02;;;;;;;;;;;21.80;97.50;;;;;;4935449;29;19930;-59
2022/03/19 12:18:33;;;;;;;;;;;21.70;97.60;;;;;;4944993;29;19930;-58
2022/03/19 12:21:04;;;;;;;;;;;21.70;97.60;;;;;;4935263;29;19959;-62
2022/03/19 12:23:44;;;;;;;;;;;21.70;97.70;;;;;;4994017;28;19936;-59
2022/03/19 12:26:12;;;;;;;;;;;21.60;97.70;;;;;;5048589;28;19924;-58
2022/03/19 12:28:40;;;;;;;;;;;21.60;97.80;;;;;;5034516;28;20628;-58
2022/03/19 12:31:09;;;;;;;;;;;21.60;97.80;;;;;;5050513;28;20020;-59
2022/03/19 12:33:37;;;;;;;;;;;21.60;97.80;;;;;;5043991;28;19925;-63
2022/03/19 12:36:16;;;;;;;;;;;21.50;97.90;;;;;;5041780;28;19932;-60
2022/03/19 12:38:45;;;;;;;;;;;21.50;97.90;;;;;;5045808;28;20316;-62
2022/03/19 12:41:29;;;;;;;;;;;21.40;97.90;;;;;;5034804;28;19940;-62
2022/03/19 12:44:33;;;;;;;;;;;21.50;98.00;;;;;;5031736;28;20472;-62
2022/03/19 12:47:01;;;;;;;;;;;21.40;98.00;;;;;;5047255;28;19951;-59
2022/03/19 12:49:31;;;;;;;;;;;21.40;98.10;;;;;;5046655;28;19929;-61
2022/03/19 12:52:05;;;;;;;;;;;21.40;98.10;;;;;;5047100;28;19929;-60
2022/03/19 12:54:32;;;;;;;;;;;21.40;98.00;;;;;;5032869;28;19933;-60
2022/03/19 12:57:10;;;;;;;;;;;21.40;98.00;;;;;;5035419;28;20307;-60
2022/03/19 12:59:46;;;;;;;;;;;21.40;98.00;;;;;;5045628;28;19936;-62
2022/03/19 13:02:13;;;;;;;;;;;21.40;98.30;;;;;;5034470;28;19986;-61
2022/03/19 13:04:43;;;;;;;;;;;21.40;98.00;;;;;;5037933;28;19929;-59
2022/03/19 13:07:12;;;;;;;;;;;21.40;98.00;;;;;;5052235;28;19933;-60
2022/03/19 13:09:40;;;;;;;;;;;21.40;98.00;;;;;;5034819;28;20419;-57
2022/03/19 13:12:08;;;;;;;;;;;21.50;97.90;;;;;;5047056;28;20007;-60
2022/03/19 13:14:36;;;;;;;;;;;21.50;97.80;;;;;;5030773;28;19929;-61
2022/03/19 13:17:03;;;;;;;;;;;21.60;97.80;;;;;;5047070;28;19936;-61
2022/03/19 13:19:34;;;;;;;;;;;21.70;97.70;;;;;;5036579;28;19929;-60
2022/03/19 13:22:03;;;;;;;;;;;21.70;97.60;;;;;;5050526;28;20127;-62
2022/03/19 13:24:33;;;;;;;;;;;21.80;97.50;;;;;;5045312;28;19932;-62
2022/03/19 13:27:01;;;;;;;;;;;21.90;97.50;;;;;;5038517;28;19925;-61
2022/03/19 13:29:32;;;;;;;;;;;21.90;97.30;;;;;;5031949;28;19929;-58
2022/03/19 13:32:01;;;;;;;;;;;22.00;97.40;;;;;;5049756;28;19948;-62
2022/03/19 13:34:28;;;;;;;;;;;22.00;97.30;;;;;;5032767;28;19929;-60
2022/03/19 13:36:59;;;;;;;;;;;22.00;97.30;;;;;;5043565;28;19929;-60
2022/03/19 13:39:28;;;;;;;;;;;22.00;97.30;;;;;;5049483;28;20709;-61
2022/03/19 13:42:09;;;;;;;;;;;22.00;97.20;;;;;;5062565;28;19932;-63
2022/03/19 13:44:38;;;;;;;;;;;22.10;97.30;;;;;;5029943;28;19932;-61
2022/03/19 13:47:17;;;;;;;;;;;22.00;97.30;;;;;;5044879;28;19928;-61
2022/03/19 13:49:55;;;;;;;;;;;22.00;97.30;;;;;;5041628;28;20314;-61
2022/03/19 13:52:28;;;;;;;;;;;22.00;97.30;;;;;;5044446;28;20496;-61
2022/03/19 13:54:59;;;;;;;;;;;22.10;97.40;;;;;;5038418;28;19925;-61
2022/03/19 13:57:30;;;;;;;;;;;22.00;97.40;;;;;;5035573;28;19929;-59
2022/03/19 14:00:03;;;;;;;;;;;22.10;97.40;;;;;;5045012;28;19936;-60
2022/03/19 14:02:40;;;;;;;;;;;22.00;97.40;;;;;;5046954;28;19928;-62
2022/03/19 14:05:10;;;;;;;;;;;22.00;97.40;;;;;;5039328;28;20016;-63
2022/03/19 14:07:38;;;;;;;;;;;22.00;97.40;;;;;;5035204;28;19944;-62
2022/03/19 14:10:06;;;;;;;;;;;22.00;97.50;;;;;;5066236;28;20306;-59
2022/03/19 14:12:38;;;;;;;;;;;22.10;97.40;;;;;;5037337;28;19925;-60
2022/03/19 14:15:06;;;;;;;;;;;22.10;97.40;;;;;;5032346;28;19933;-61
2022/03/19 14:17:42;;;;;;;;;;;22.10;97.40;;;;;;5039096;28;19929;-61
2022/03/19 14:20:11;;;;;;;;;;;22.10;97.40;;;;;;5041737;28;19924;-62
2022/03/19 14:22:38;;;;;;;;;;;22.10;97.30;;;;;;5038291;28;19944;-65
2022/03/19 14:25:05;;;;;;;;;;;22.10;97.30;;;;;;5047469;28;19940;-61
2022/03/19 14:27:33;;;;;;;;;;;22.10;97.30;;;;;;5040386;28;19936;-60
2022/03/19 14:30:18;;;;;;;;;;;22.10;97.30;;;;;;5045567;28;20412;-62
2022/03/19 14:32:46;;;;;;;;;;;22.10;97.60;;;;;;5038129;28;19929;-62
2022/03/19 14:35:23;;;;;;;;;;;22.00;97.50;;;;;;5041787;28;19933;-62
2022/03/19 14:38:12;;;;;;;;;;;21.80;97.60;;;;;;5045924;28;19936;-59
2022/03/19 14:40:40;;;;;;;;;;;21.70;97.80;;;;;;5037834;28;19936;-61
2022/03/19 14:43:08;;;;;;;;;;;21.70;97.80;;;;;;5058055;28;19924;-61
2022/03/19 14:45:36;;;;;;;;;;;21.60;97.90;;;;;;5040945;28;20296;-61
2022/03/19 14:48:05;;;;;;;;;;;21.50;97.90;;;;;;5047467;28;19929;-62